createdAt,value
2022-08-07T00:00:32.511Z,10.23
2022-08-07T00:02:59.967Z,12.50
2022-08-07T00:05:29.703Z,8.95
2022-08-07T00:08:00.218Z,11.18
2022-08-07T00:10:31.034Z,11.82
2022-08-07T00:13:02.307Z,10.80
2022-08-07T00:15:46.337Z,11.93
2022-08-07T00:18:19.429Z,10.10
2022-08-07T00:20:49.421Z,12.05
2022-08-07T00:23:17.033Z,10.18
2022-08-07T00:25:45.894Z,12.20
2022-08-07T00:28:33.481Z,12.27
2022-08-07T00:31:06.249Z,13.10
2022-08-07T00:33:40.314Z,14.77
2022-08-07T00:36:08.434Z,10.93
2022-08-07T00:38:36.774Z,9.45
2022-08-07T00:41:09.986Z,11.35
2022-08-07T00:44:01.650Z,12.73
2022-08-07T00:46:30.960Z,10.57
2022-08-07T00:49:02.680Z,10.38
2022-08-07T00:51:56.723Z,11.30
2022-08-07T00:54:19.593Z,11.68
2022-08-07T00:56:49.921Z,12.60
2022-08-07T00:59:17.582Z,11.80
2022-08-07T01:01:49.331Z,10.43
2022-08-07T01:04:25.099Z,10.02
2022-08-07T01:06:52.284Z,10.30
2022-08-07T01:10:04.254Z,16.63
2022-08-07T01:12:28.639Z,14.65
2022-08-07T01:15:01.622Z,14.35
2022-08-07T01:17:32.880Z,15.00
2022-08-07T01:20:04.236Z,15.13
2022-08-07T01:22:32.904Z,11.52
2022-08-07T01:25:01.012Z,13.50
2022-08-07T01:27:32.649Z,13.80
2022-08-07T01:30:01.633Z,11.90
2022-08-07T01:32:31.044Z,14.23
2022-08-07T01:35:00.131Z,13.30
2022-08-07T01:37:28.198Z,14.80
2022-08-07T01:40:02.251Z,13.35
2022-08-07T01:42:37.676Z,11.23
2022-08-07T01:45:09.893Z,13.20
2022-08-07T01:50:32.084Z,14.20
2022-08-07T01:53:02.113Z,14.68
2022-08-07T01:55:44.369Z,9.55
2022-08-07T01:58:29.016Z,13.60
2022-08-07T02:01:10.307Z,14.48
2022-08-07T02:03:56.549Z,11.50
2022-08-07T02:06:31.344Z,11.45
2022-08-07T02:09:04.510Z,9.23
2022-08-07T02:12:04.193Z,9.32
2022-08-07T02:14:35.492Z,9.23
2022-08-07T02:17:06.182Z,11.98
2022-08-07T02:20:04.321Z,12.93
2022-08-07T02:24:55.889Z,12.65
2022-08-07T02:27:26.351Z,12.27
2022-08-07T02:30:03.668Z,14.48
2022-08-07T02:32:39.557Z,8.93
2022-08-07T02:36:28.291Z,8.95
2022-08-07T02:38:16.046Z,12.32
2022-08-07T02:40:44.533Z,9.13
2022-08-07T02:43:16.436Z,12.95
2022-08-07T02:45:59.297Z,10.35
2022-08-07T02:48:30.812Z,9.43
2022-08-07T02:51:06.737Z,10.93
2022-08-07T02:53:38.890Z,12.55
2022-08-07T02:56:21.110Z,12.90
2022-08-07T02:58:53.949Z,11.23
2022-08-07T03:01:35.509Z,9.20
2022-08-07T03:04:09.314Z,8.48
2022-08-07T03:06:40.340Z,7.70
2022-08-07T03:09:11.201Z,8.75
2022-08-07T03:11:51.690Z,9.73
2022-08-07T03:14:23.919Z,8.40
2022-08-07T03:16:52.608Z,12.20
2022-08-07T03:19:20.858Z,11.75
2022-08-07T03:21:50.930Z,12.27
2022-08-07T03:24:26.818Z,7.35
2022-08-07T03:27:00.181Z,8.68
2022-08-07T03:29:38.493Z,9.15
2022-08-07T03:32:13.496Z,10.18
2022-08-07T03:34:47.283Z,7.80
2022-08-07T03:37:32.783Z,12.52
2022-08-07T03:40:14.807Z,11.55
2022-08-07T03:42:44.490Z,8.10
2022-08-07T03:45:30.359Z,9.40
2022-08-07T03:48:02.326Z,8.73
2022-08-07T03:53:03.323Z,9.55
2022-08-07T03:55:58.282Z,9.18
2022-08-07T03:58:34.960Z,10.93
2022-08-07T04:01:11.704Z,7.88
2022-08-07T04:03:53.625Z,8.10
2022-08-07T04:06:37.383Z,8.35
2022-08-07T04:09:15.644Z,9.50
2022-08-07T04:12:27.029Z,6.28
2022-08-07T04:14:37.485Z,8.60
2022-08-07T04:17:21.212Z,9.68
2022-08-07T04:19:54.605Z,9.52
2022-08-07T04:22:29.125Z,9.75
2022-08-07T04:25:01.093Z,7.82
2022-08-07T04:27:35.444Z,10.10
2022-08-07T04:30:11.671Z,10.50
2022-08-07T04:32:58.119Z,10.07
2022-08-07T04:35:27.335Z,7.35
2022-08-07T04:38:05.414Z,9.18
2022-08-07T04:40:51.479Z,9.85
2022-08-07T04:44:14.425Z,8.80
2022-08-07T04:49:17.564Z,8.23
2022-08-07T04:51:56.795Z,6.70
2022-08-07T04:54:31.594Z,8.98
2022-08-07T04:58:15.885Z,7.85
2022-08-07T05:00:09.733Z,10.80
2022-08-07T05:02:48.596Z,9.82
2022-08-07T05:05:52.111Z,8.65
2022-08-07T05:08:18.202Z,5.85
2022-08-07T05:11:10.956Z,9.07
2022-08-07T05:14:54.219Z,9.27
2022-08-07T05:16:43.980Z,8.15
2022-08-07T05:19:17.988Z,8.75
2022-08-07T05:22:00.064Z,6.47
2022-08-07T05:24:40.454Z,9.05
2022-08-07T05:27:18.406Z,9.70
2022-08-07T05:29:59.359Z,8.43
2022-08-07T05:32:26.537Z,8.15
2022-08-07T05:34:54.347Z,9.30
2022-08-07T05:37:25.066Z,8.90
2022-08-07T05:40:05.989Z,8.18
2022-08-07T05:42:55.822Z,9.85
2022-08-07T05:45:46.558Z,9.38
2022-08-07T05:48:13.892Z,8.70
2022-08-07T05:50:44.905Z,10.18
2022-08-07T05:54:09.458Z,10.20
2022-08-07T05:56:05.833Z,10.05
2022-08-07T05:58:37.702Z,9.63
2022-08-07T06:01:11.622Z,9.82
2022-08-07T06:03:53.619Z,10.85
2022-08-07T06:06:29.445Z,10.10
2022-08-07T06:09:04.493Z,9.20
2022-08-07T06:11:35.638Z,7.25
2022-08-07T06:14:11.677Z,9.95
2022-08-07T06:16:50.700Z,9.48
2022-08-07T06:19:51.905Z,10.85
2022-08-07T06:22:23.855Z,10.02
2022-08-07T06:25:04.854Z,10.75
2022-08-07T06:27:59.718Z,11.15
2022-08-07T06:30:32.021Z,11.63
2022-08-07T06:33:15.989Z,12.68
2022-08-07T06:36:06.256Z,8.48
2022-08-07T06:38:35.099Z,10.40
2022-08-07T06:41:13.075Z,12.05
2022-08-07T06:43:46.087Z,9.48
2022-08-07T06:46:31.045Z,11.50
2022-08-07T06:48:59.999Z,10.73
2022-08-07T06:51:33.682Z,10.75
2022-08-07T06:55:28.261Z,10.93
2022-08-07T06:56:57.512Z,10.48
2022-08-07T07:00:12.602Z,11.00
2022-08-07T07:02:48.168Z,9.85
2022-08-07T07:05:13.212Z,9.95
2022-08-07T07:08:06.952Z,9.38
2022-08-07T07:10:36.950Z,9.82
2022-08-07T07:13:11.065Z,9.25
2022-08-07T07:15:43.179Z,11.40
2022-08-07T07:18:15.391Z,11.63
2022-08-07T07:21:19.720Z,11.55
2022-08-07T07:24:09.133Z,10.75
2022-08-07T07:26:37.921Z,10.52
2022-08-07T07:29:40.246Z,8.98
2022-08-07T07:32:02.393Z,8.68
2022-08-07T07:34:32.130Z,11.93
2022-08-07T07:37:05.462Z,8.93
2022-08-07T07:39:55.766Z,9.10
2022-08-07T07:42:33.338Z,8.05
2022-08-07T07:45:02.820Z,8.68
2022-08-07T07:47:42.918Z,8.68
2022-08-07T07:50:36.370Z,8.30
2022-08-07T07:53:06.173Z,11.73
2022-08-07T07:55:54.823Z,9.40
2022-08-07T07:58:29.250Z,9.23
2022-08-07T08:00:58.587Z,9.85
2022-08-07T08:04:06.333Z,9.98
2022-08-07T08:06:17.448Z,11.95
2022-08-07T08:08:44.977Z,9.40
2022-08-07T08:11:18.179Z,6.75
2022-08-07T08:14:02.975Z,9.65
2022-08-07T08:18:36.432Z,8.55
2022-08-07T08:20:18.780Z,8.05
2022-08-07T08:22:33.642Z,9.07
2022-08-07T08:25:41.910Z,8.60
2022-08-07T08:28:23.752Z,10.55
2022-08-07T08:31:07.374Z,11.30
2022-08-07T08:33:50.025Z,8.77
2022-08-07T08:36:29.769Z,9.07
2022-08-07T08:39:02.060Z,7.32
2022-08-07T08:41:59.197Z,7.18
2022-08-07T08:44:29.293Z,9.48
2022-08-07T08:47:05.131Z,8.07
2022-08-07T08:50:04.491Z,10.00
2022-08-07T08:52:36.005Z,9.30
2022-08-07T08:55:08.928Z,9.07
2022-08-07T08:57:46.842Z,7.57
2022-08-07T09:00:15.250Z,9.98
2022-08-07T09:02:52.328Z,8.80
2022-08-07T09:05:37.761Z,9.35
2022-08-07T09:08:30.432Z,9.45
2022-08-07T09:11:11.134Z,6.63
2022-08-07T09:13:54.664Z,8.73
2022-08-07T09:16:30.455Z,10.02
2022-08-07T09:19:53.283Z,9.93
2022-08-07T09:25:12.028Z,8.43
2022-08-07T09:27:59.911Z,8.23
2022-08-07T09:30:37.227Z,10.65
2022-08-07T09:33:16.433Z,11.15
2022-08-07T09:36:03.325Z,8.10
2022-08-07T09:38:42.461Z,9.18
2022-08-07T09:41:28.185Z,9.73
2022-08-07T09:44:32.893Z,8.65
2022-08-07T09:47:51.948Z,9.18
2022-08-07T09:50:19.111Z,9.23
2022-08-07T09:52:53.923Z,8.85
2022-08-07T09:56:04.133Z,8.25
2022-08-07T09:58:32.958Z,7.93
2022-08-07T10:01:50.997Z,10.25
2022-08-07T10:04:33.022Z,7.90
2022-08-07T10:07:52.379Z,10.30
2022-08-07T10:14:00.646Z,10.25
2022-08-07T10:16:55.969Z,9.52
2022-08-07T10:19:46.555Z,7.57
2022-08-07T10:22:33.711Z,8.52
2022-08-07T10:25:14.449Z,10.60
2022-08-07T10:28:22.129Z,9.90
2022-08-07T10:31:02.373Z,10.95
2022-08-07T10:34:14.615Z,13.57
2022-08-07T10:36:48.345Z,9.90
2022-08-07T10:39:42.114Z,8.95
2022-08-07T10:42:36.509Z,9.25
2022-08-07T10:45:17.387Z,19.38
2022-08-07T10:47:55.816Z,16.05
2022-08-07T10:50:32.856Z,8.63
2022-08-07T10:53:09.755Z,10.52
2022-08-07T10:55:44.083Z,9.50
2022-08-07T10:58:32.110Z,11.52
2022-08-07T11:01:17.171Z,7.05
2022-08-07T11:04:05.347Z,9.13
2022-08-07T11:06:51.155Z,8.45
2022-08-07T11:10:09.374Z,10.07
2022-08-07T11:12:31.746Z,9.57
2022-08-07T11:15:03.853Z,8.63
2022-08-07T11:17:49.869Z,9.60
2022-08-07T11:20:24.414Z,9.15
2022-08-07T11:22:59.633Z,11.23
2022-08-07T11:25:36.224Z,10.18
2022-08-07T11:28:17.547Z,9.32
2022-08-07T11:30:52.696Z,12.35
2022-08-07T11:33:55.424Z,9.00
2022-08-07T11:36:36.917Z,9.68
2022-08-07T11:39:19.380Z,8.73
2022-08-07T11:42:02.393Z,14.27
2022-08-07T11:44:52.677Z,13.85
2022-08-07T11:50:44.360Z,11.25
2022-08-07T11:53:35.465Z,12.23
2022-08-07T11:56:27.044Z,10.45
2022-08-07T11:59:03.902Z,7.97
2022-08-07T12:01:59.135Z,8.23
2022-08-07T12:04:53.043Z,6.97
2022-08-07T12:07:27.441Z,7.45
2022-08-07T12:10:01.979Z,9.95
2022-08-07T12:12:37.352Z,7.68
2022-08-07T12:15:17.297Z,8.70
2022-08-07T12:18:08.070Z,6.38
2022-08-07T12:20:46.338Z,9.15
2022-08-07T12:24:05.450Z,9.45
2022-08-07T12:26:35.490Z,6.95
2022-08-07T12:29:12.016Z,11.32
2022-08-07T12:32:02.608Z,7.53
2022-08-07T12:34:34.661Z,7.75
2022-08-07T12:37:03.973Z,9.27
2022-08-07T12:39:44.222Z,6.20
2022-08-07T12:42:27.889Z,8.00
2022-08-07T12:44:57.858Z,9.07
2022-08-07T12:47:33.159Z,7.20
2022-08-07T12:50:38.631Z,6.53
2022-08-07T12:53:18.032Z,7.63
2022-08-07T12:56:02.528Z,8.68
2022-08-07T12:58:37.386Z,7.70
2022-08-07T13:01:16.917Z,5.97
2022-08-07T13:04:04.675Z,7.60
2022-08-07T13:06:54.346Z,8.07
2022-08-07T13:10:36.722Z,8.38
2022-08-07T13:13:01.189Z,7.07
2022-08-07T13:15:36.187Z,7.93
2022-08-07T13:18:26.128Z,9.40
2022-08-07T13:21:02.833Z,6.75
2022-08-07T13:24:01.654Z,5.55
2022-08-07T13:26:33.971Z,7.18
2022-08-07T13:29:10.957Z,8.48
2022-08-07T13:31:54.839Z,7.47
2022-08-07T13:34:35.987Z,7.70
2022-08-07T13:37:11.030Z,8.45
2022-08-07T13:40:35.587Z,7.72
2022-08-07T13:42:59.631Z,8.65
2022-08-07T13:46:16.407Z,6.00
2022-08-07T13:48:31.706Z,8.70
2022-08-07T13:51:27.569Z,6.70
2022-08-07T13:53:59.499Z,6.75
2022-08-07T13:56:35.848Z,6.90
2022-08-07T13:59:12.335Z,9.50
2022-08-07T14:01:51.505Z,8.60
2022-08-07T14:04:47.524Z,6.65
2022-08-07T14:07:19.537Z,6.43
2022-08-07T14:10:12.499Z,6.80
2022-08-07T14:12:54.023Z,7.07
2022-08-07T14:15:31.946Z,9.40
2022-08-07T14:18:27.101Z,6.10
2022-08-07T14:20:59.367Z,7.32
2022-08-07T14:24:00.493Z,6.50
2022-08-07T14:29:05.986Z,6.07
2022-08-07T14:31:43.378Z,8.65
2022-08-07T14:34:29.685Z,8.25
2022-08-07T14:36:59.411Z,6.43
2022-08-07T14:40:17.169Z,5.10
2022-08-07T14:42:25.022Z,7.68
2022-08-07T14:44:59.829Z,6.75
2022-08-07T14:47:45.669Z,8.60
2022-08-07T14:50:19.202Z,5.70
2022-08-07T14:52:47.893Z,6.90
2022-08-07T14:55:18.405Z,7.40
2022-08-07T14:57:58.424Z,7.25
2022-08-07T15:03:19.635Z,6.10
2022-08-07T15:05:54.130Z,7.53
2022-08-07T15:11:15.695Z,6.55
2022-08-07T15:14:10.153Z,6.38
2022-08-07T15:20:30.192Z,6.65
2022-08-07T15:22:22.107Z,7.40
2022-08-07T15:25:14.460Z,7.68
2022-08-07T15:28:14.104Z,8.93
2022-08-07T15:30:31.480Z,4.78
2022-08-07T15:33:04.038Z,6.85
2022-08-07T15:38:30.787Z,5.80
2022-08-07T15:42:42.406Z,6.28
2022-08-07T15:44:00.485Z,7.95
2022-08-07T15:46:39.224Z,6.53
2022-08-07T15:49:18.129Z,6.18
2022-08-07T15:54:33.921Z,6.07
2022-08-07T15:57:03.471Z,5.97
2022-08-07T15:59:39.774Z,7.60
2022-08-07T16:02:23.511Z,4.50
2022-08-07T16:04:58.429Z,7.15
2022-08-07T16:08:29.154Z,6.20
2022-08-07T16:10:22.918Z,8.95
2022-08-07T16:13:17.816Z,8.48
2022-08-07T16:16:06.863Z,7.63
2022-08-07T16:19:09.514Z,6.70
2022-08-07T16:22:05.569Z,8.27
2022-08-07T16:24:38.584Z,6.97
2022-08-07T16:27:40.737Z,9.57
2022-08-07T16:30:30.723Z,4.75
2022-08-07T16:34:03.398Z,4.63
2022-08-07T16:36:20.068Z,6.35
2022-08-07T16:39:03.474Z,5.35
2022-08-07T16:41:54.049Z,6.53
2022-08-07T16:45:15.596Z,7.25
2022-08-07T16:48:28.706Z,6.30
2022-08-07T16:51:53.980Z,6.25
2022-08-07T16:54:33.005Z,6.13
2022-08-07T16:57:15.254Z,7.90
2022-08-07T16:59:51.972Z,7.10
2022-08-07T17:02:53.004Z,6.32
2022-08-07T17:06:02.154Z,6.55
2022-08-07T17:09:09.461Z,8.93
2022-08-07T17:12:02.045Z,6.20
2022-08-07T17:14:32.258Z,9.82
2022-08-07T17:17:09.718Z,7.03
2022-08-07T17:20:02.310Z,6.28
2022-08-07T17:22:38.143Z,7.10
2022-08-07T17:25:15.107Z,8.15
2022-08-07T17:27:57.618Z,8.07
2022-08-07T17:30:30.080Z,10.13
2022-08-07T17:34:09.179Z,5.32
2022-08-07T17:36:02.111Z,7.68
2022-08-07T17:38:35.373Z,7.15
2022-08-07T17:41:12.490Z,7.78
2022-08-07T17:44:06.622Z,7.93
2022-08-07T17:46:47.125Z,7.18
2022-08-07T17:49:24.158Z,5.75
2022-08-07T17:52:00.530Z,4.38
2022-08-07T17:54:53.878Z,8.45
2022-08-07T17:57:44.169Z,4.78
2022-08-07T18:00:32.698Z,7.55
2022-08-07T18:03:11.098Z,6.05
2022-08-07T18:06:03.315Z,5.05
2022-08-07T18:09:01.439Z,4.78
2022-08-07T18:12:17.624Z,8.85
2022-08-07T18:14:31.296Z,4.72
2022-08-07T18:17:05.313Z,5.25
2022-08-07T18:21:04.224Z,7.47
2022-08-07T18:22:33.977Z,4.57
2022-08-07T18:25:19.023Z,7.63
2022-08-07T18:28:13.652Z,11.20
2022-08-07T18:31:07.489Z,7.20
2022-08-07T18:34:35.794Z,6.97
2022-08-07T18:37:09.223Z,7.55
2022-08-07T18:42:44.786Z,5.00
2022-08-07T18:45:44.994Z,5.82
2022-08-07T18:48:05.437Z,7.32
2022-08-07T18:51:05.351Z,8.30
2022-08-07T18:53:48.815Z,5.57
2022-08-07T18:56:37.838Z,5.13
2022-08-07T18:59:47.754Z,5.97
2022-08-07T19:02:32.545Z,6.15
2022-08-07T19:05:15.224Z,9.73
2022-08-07T19:07:57.047Z,4.63
2022-08-07T19:10:31.581Z,6.35
2022-08-07T19:13:11.725Z,4.40
2022-08-07T19:16:04.215Z,5.47
2022-08-07T19:18:45.154Z,5.28
2022-08-07T19:21:51.058Z,5.30
2022-08-07T19:24:30.798Z,6.00
2022-08-07T19:28:57.777Z,6.47
2022-08-07T19:31:05.965Z,7.28
2022-08-07T19:32:46.925Z,5.10
2022-08-07T19:35:22.579Z,5.82
2022-08-07T19:37:58.425Z,7.18
2022-08-07T19:40:30.769Z,5.00
2022-08-07T19:43:01.139Z,8.13
2022-08-07T19:46:06.183Z,5.65
2022-08-07T19:48:25.475Z,4.35
2022-08-07T19:50:54.495Z,8.80
2022-08-07T19:54:35.068Z,6.28
2022-08-07T19:58:01.301Z,6.32
2022-08-07T19:59:08.829Z,5.90
2022-08-07T20:01:57.420Z,8.38
2022-08-07T20:04:30.996Z,7.75
2022-08-07T20:06:59.275Z,6.88
2022-08-07T20:10:36.108Z,5.47
2022-08-07T20:12:31.916Z,6.10
2022-08-07T20:15:09.757Z,7.47
2022-08-07T20:18:01.485Z,8.13
2022-08-07T20:20:32.704Z,11.48
2022-08-07T20:23:22.908Z,9.18
2022-08-07T20:25:53.190Z,6.35
2022-08-07T20:28:29.514Z,7.05
2022-08-07T20:30:58.563Z,6.50
2022-08-07T20:33:37.658Z,8.23
2022-08-07T20:36:08.785Z,11.38
2022-08-07T20:38:59.475Z,7.45
2022-08-07T20:41:26.884Z,7.57
2022-08-07T20:43:57.459Z,7.32
2022-08-07T20:46:44.161Z,8.20
2022-08-07T20:49:58.976Z,6.53
2022-08-07T20:52:09.368Z,6.47
2022-08-07T20:54:53.085Z,6.38
2022-08-07T20:57:24.314Z,8.35
2022-08-07T21:00:04.926Z,7.93
2022-08-07T21:02:57.774Z,8.23
2022-08-07T21:05:50.604Z,6.80
2022-08-07T21:08:33.195Z,6.25
2022-08-07T21:11:12.368Z,7.97
2022-08-07T21:14:16.569Z,8.60
2022-08-07T21:16:46.724Z,7.78
2022-08-07T21:19:32.183Z,7.63
2022-08-07T21:22:16.261Z,7.10
2022-08-07T21:24:55.308Z,6.30
2022-08-07T21:27:40.164Z,7.60
2022-08-07T21:30:16.673Z,6.05
2022-08-07T21:32:53.588Z,7.95
2022-08-07T21:35:34.704Z,7.57
2022-08-07T21:38:27.574Z,6.07
2022-08-07T21:41:01.806Z,6.18
2022-08-07T21:43:47.206Z,5.63
2022-08-07T21:46:32.249Z,7.60
2022-08-07T21:49:15.005Z,6.85
2022-08-07T21:51:57.701Z,6.20
2022-08-07T21:54:38.086Z,5.90
2022-08-07T21:57:39.738Z,8.02
2022-08-07T22:00:22.360Z,7.85
2022-08-07T22:02:59.213Z,6.88
2022-08-07T22:05:45.766Z,8.27
2022-08-07T22:08:19.881Z,6.32
2022-08-07T22:10:53.636Z,6.03
2022-08-07T22:13:24.217Z,5.45
2022-08-07T22:16:41.928Z,8.50
2022-08-07T22:19:20.104Z,7.35
2022-08-07T22:22:10.867Z,7.55
2022-08-07T22:24:55.456Z,5.30
2022-08-07T22:27:34.135Z,5.40
2022-08-07T22:30:22.222Z,5.18
2022-08-07T22:33:02.323Z,6.65
2022-08-07T22:35:39.835Z,6.10
2022-08-07T22:38:24.163Z,5.97
2022-08-07T22:41:00.005Z,9.02
2022-08-07T22:43:36.164Z,6.57
2022-08-07T22:47:02.421Z,7.47
2022-08-07T22:49:39.616Z,7.75
2022-08-07T22:52:40.074Z,8.82
2022-08-07T22:55:34.005Z,6.88
2022-08-07T22:58:24.962Z,7.63
2022-08-07T23:01:10.980Z,7.05
2022-08-07T23:03:58.340Z,8.32
2022-08-07T23:06:38.932Z,7.90
2022-08-07T23:10:05.360Z,6.00
2022-08-07T23:12:21.154Z,7.63
2022-08-07T23:15:27.045Z,7.35
2022-08-07T23:18:19.241Z,10.05
2022-08-07T23:21:12.028Z,5.75
2022-08-07T23:24:18.761Z,6.30
2022-08-07T23:27:01.497Z,7.57
2022-08-07T23:30:38.896Z,7.50
2022-08-07T23:34:35.553Z,6.55
2022-08-07T23:36:17.438Z,6.88
2022-08-07T23:39:08.383Z,5.68
2022-08-07T23:42:04.116Z,6.93
2022-08-07T23:44:53.758Z,5.90
2022-08-07T23:47:46.764Z,5.07
2022-08-07T23:50:33.476Z,7.28
2022-08-07T23:53:11.773Z,8.07
2022-08-07T23:55:53.839Z,7.25
2022-08-07T23:58:31.399Z,4.60
